createdAt,value
2018-05-01T00:01:26.624Z,2.65
2018-05-01T00:03:55.500Z,2.50
2018-05-01T00:06:23.655Z,2.37
2018-05-01T00:08:51.779Z,2.78
2018-05-01T00:11:20.663Z,3.20
2018-05-01T00:13:49.539Z,3.00
2018-05-01T00:16:17.740Z,3.03
2018-05-01T00:18:45.852Z,3.22
2018-05-01T00:21:13.999Z,3.37
2018-05-01T00:23:42.108Z,3.20
2018-05-01T00:26:10.225Z,3.15
2018-05-01T00:28:39.130Z,3.60
2018-05-01T00:31:07.256Z,3.30
2018-05-01T00:33:35.383Z,3.83
2018-05-01T00:36:03.504Z,3.72
2018-05-01T00:38:31.621Z,3.97
2018-05-01T00:40:59.743Z,4.60
2018-05-01T00:43:27.879Z,5.40
2018-05-01T00:45:56.003Z,5.53
2018-05-01T00:48:24.100Z,6.47
2018-05-01T00:50:52.237Z,6.55
2018-05-01T00:53:20.379Z,7.15
2018-05-01T00:55:48.501Z,7.75
2018-05-01T00:58:17.377Z,7.57
2018-05-01T01:00:45.505Z,7.53
2018-05-01T01:03:13.659Z,8.38
2018-05-01T01:05:41.773Z,7.68
2018-05-01T01:08:09.912Z,8.07
2018-05-01T01:10:38.020Z,6.90
2018-05-01T01:13:06.235Z,6.18
2018-05-01T01:15:34.409Z,5.97
2018-05-01T01:18:02.523Z,6.00
2018-05-01T01:20:30.657Z,5.45
2018-05-01T01:22:58.788Z,5.53
2018-05-01T01:25:26.907Z,5.65
2018-05-01T01:27:55.017Z,5.30
2018-05-01T01:30:23.152Z,5.37
2018-05-01T01:32:53.123Z,6.00
2018-05-01T01:35:20.744Z,6.40
2018-05-01T01:37:48.370Z,6.07
2018-05-01T01:40:16.767Z,7.07
2018-05-01T01:42:44.399Z,7.87
2018-05-01T01:45:12.795Z,8.00
2018-05-01T01:47:41.284Z,8.25
2018-05-01T01:50:08.917Z,8.43
2018-05-01T01:52:37.322Z,8.13
2018-05-01T01:55:05.153Z,8.85
2018-05-01T01:57:33.471Z,8.73
2018-05-01T02:00:01.157Z,9.00
2018-05-01T02:02:28.787Z,9.10
2018-05-01T02:04:56.411Z,8.73
2018-05-01T02:07:24.039Z,8.40
2018-05-01T02:09:51.684Z,8.75
2018-05-01T02:12:19.319Z,8.60
2018-05-01T02:14:48.100Z,9.55
2018-05-01T02:17:15.715Z,8.80
2018-05-01T02:19:43.338Z,9.95
2018-05-01T02:22:10.993Z,10.25
2018-05-01T02:24:39.482Z,10.88
2018-05-01T02:27:07.099Z,9.70
2018-05-01T02:29:36.242Z,9.82
2018-05-01T02:32:03.901Z,10.70
2018-05-01T02:34:31.542Z,10.93
2018-05-01T02:36:59.927Z,9.85
2018-05-01T02:39:28.429Z,10.05
2018-05-01T02:41:56.063Z,9.77
2018-05-01T02:44:24.453Z,9.73
2018-05-01T02:46:52.115Z,8.90
2018-05-01T02:49:19.750Z,9.40
2018-05-01T02:51:48.153Z,9.90
2018-05-01T02:54:15.813Z,9.07
2018-05-01T02:56:44.179Z,8.57
2018-05-01T02:59:12.684Z,9.25
2018-05-01T03:01:40.313Z,10.60
2018-05-01T03:04:08.714Z,9.68
2018-05-01T03:06:37.116Z,9.43
2018-05-01T03:09:04.771Z,8.63
2018-05-01T03:11:32.426Z,8.73
2018-05-01T03:14:00.824Z,8.38
2018-05-01T03:16:28.448Z,8.00
2018-05-01T03:18:56.944Z,8.30
2018-05-01T03:21:24.582Z,8.38
2018-05-01T03:23:53.084Z,7.80
2018-05-01T03:26:20.744Z,7.93
2018-05-01T03:28:48.370Z,7.28
2018-05-01T03:31:16.006Z,7.95
2018-05-01T03:33:43.628Z,8.65
2018-05-01T03:36:11.256Z,8.30
2018-05-01T03:38:38.879Z,9.00
2018-05-01T03:41:06.608Z,8.27
2018-05-01T03:43:34.244Z,9.70
2018-05-01T03:46:01.879Z,9.82
2018-05-01T03:48:29.508Z,8.38
2018-05-01T03:50:57.136Z,9.80
2018-05-01T03:53:25.551Z,9.82
2018-05-01T03:55:53.184Z,9.43
2018-05-01T03:58:21.564Z,10.60
2018-05-01T04:00:49.210Z,9.52
2018-05-01T04:03:17.627Z,10.13
2018-05-01T04:05:45.779Z,10.82
2018-05-01T04:08:14.292Z,10.73
2018-05-01T04:10:41.931Z,10.43
2018-05-01T04:13:09.582Z,11.10
2018-05-01T04:15:37.981Z,11.38
2018-05-01T04:18:05.611Z,10.68
2018-05-01T04:20:34.003Z,11.30
2018-05-01T04:23:01.635Z,10.88
2018-05-01T04:25:29.283Z,11.27
2018-05-01T04:27:56.907Z,11.25
2018-05-01T04:30:24.543Z,10.73
2018-05-01T04:32:52.182Z,11.00
2018-05-01T04:35:20.607Z,10.65
2018-05-01T04:37:48.231Z,10.00
2018-05-01T04:40:16.643Z,10.38
2018-05-01T04:42:44.294Z,10.98
2018-05-01T04:45:11.935Z,9.95
2018-05-01T04:47:40.319Z,10.13
2018-05-01T04:50:08.739Z,10.88
2018-05-01T04:52:36.365Z,9.70
2018-05-01T04:55:04.015Z,9.38
2018-05-01T04:57:32.407Z,9.52
2018-05-01T05:00:00.040Z,10.10
2018-05-01T05:02:28.463Z,10.05
2018-05-01T05:04:56.105Z,9.75
2018-05-01T05:07:23.733Z,9.70
2018-05-01T05:09:51.367Z,9.27
2018-05-01T05:12:19.049Z,8.93
2018-05-01T05:14:46.692Z,9.07
2018-05-01T05:17:14.312Z,9.23
2018-05-01T05:19:41.948Z,9.50
2018-05-01T05:22:09.589Z,9.20
2018-05-01T05:24:37.225Z,9.52
2018-05-01T05:27:04.888Z,10.23
2018-05-01T05:29:32.512Z,9.63
2018-05-01T05:32:00.137Z,10.02
2018-05-01T05:34:27.892Z,9.80
2018-05-01T05:36:55.516Z,10.80
2018-05-01T05:39:23.144Z,10.35
2018-05-01T05:41:51.663Z,10.55
2018-05-01T05:44:19.300Z,11.43
2018-05-01T05:46:46.987Z,11.80
2018-05-01T05:49:14.715Z,11.73
2018-05-01T05:51:43.104Z,10.52
2018-05-01T05:54:10.740Z,11.45
2018-05-01T05:56:38.383Z,11.60
2018-05-01T05:59:06.008Z,11.40
2018-05-01T06:01:33.648Z,11.90
2018-05-01T06:04:01.318Z,12.90
2018-05-01T06:06:28.972Z,13.10
2018-05-01T06:08:56.603Z,13.48
2018-05-01T06:11:24.997Z,14.35
2018-05-01T06:13:53.396Z,14.95
2018-05-01T06:16:21.036Z,16.40
2018-05-01T06:18:49.432Z,15.50
2018-05-01T06:21:17.056Z,15.75
2018-05-01T06:23:44.770Z,16.95
2018-05-01T06:26:12.396Z,16.62
2018-05-01T06:28:40.786Z,17.73
2018-05-01T06:31:09.263Z,17.80
2018-05-01T06:33:36.824Z,17.67
2018-05-01T06:36:05.236Z,17.65
2018-05-01T06:38:32.869Z,18.23
2018-05-01T06:41:00.492Z,17.87
2018-05-01T06:43:29.641Z,17.77
2018-05-01T06:45:57.282Z,18.10
2018-05-01T06:48:25.775Z,18.30
2018-05-01T06:50:53.434Z,17.33
2018-05-01T06:53:21.840Z,18.67
2018-05-01T06:55:49.477Z,16.42
2018-05-01T06:58:17.115Z,17.05
2018-05-01T07:00:45.511Z,17.10
2018-05-01T07:03:13.161Z,16.95
2018-05-01T07:05:41.665Z,15.50
2018-05-01T07:08:09.297Z,14.32
2018-05-01T07:10:37.710Z,14.70
2018-05-01T07:13:05.375Z,13.98
2018-05-01T07:15:33.007Z,13.05
2018-05-01T07:18:01.419Z,13.52
2018-05-01T07:20:29.071Z,13.90
2018-05-01T07:22:56.691Z,12.90
2018-05-01T07:25:24.322Z,11.52
2018-05-01T07:27:51.948Z,11.63
2018-05-01T07:30:19.595Z,11.70
2018-05-01T07:32:47.228Z,11.60
2018-05-01T07:35:15.660Z,11.00
2018-05-01T07:37:43.320Z,11.40
2018-05-01T07:40:10.950Z,11.38
2018-05-01T07:42:39.377Z,11.35
2018-05-01T07:45:07.004Z,11.20
2018-05-01T07:47:34.644Z,11.65
2018-05-01T07:50:03.054Z,11.38
2018-05-01T07:52:30.717Z,12.30
2018-05-01T07:54:58.340Z,11.25
2018-05-01T07:57:26.760Z,10.70
2018-05-01T07:59:54.408Z,12.30
2018-05-01T08:02:22.039Z,12.18
2018-05-01T08:04:50.458Z,13.23
2018-05-01T08:07:18.207Z,13.20
2018-05-01T08:09:45.872Z,12.55
2018-05-01T08:12:13.504Z,12.80
2018-05-01T08:14:41.931Z,12.82
2018-05-01T08:17:09.574Z,12.80
2018-05-01T08:19:37.245Z,12.88
2018-05-01T08:22:04.876Z,13.32
2018-05-01T08:24:34.152Z,12.70
2018-05-01T08:27:03.316Z,11.77
2018-05-01T08:29:30.948Z,11.20
2018-05-01T08:31:58.582Z,11.10
2018-05-01T08:34:27.112Z,11.45
2018-05-01T08:36:54.766Z,10.70
2018-05-01T08:39:23.244Z,11.43
2018-05-01T08:41:51.716Z,11.80
2018-05-01T08:44:19.421Z,8.52
2018-05-01T08:46:47.166Z,10.65
2018-05-01T08:49:14.796Z,9.82
2018-05-01T08:51:42.608Z,8.10
2018-05-01T08:54:10.439Z,9.15
2018-05-01T08:56:38.092Z,9.07
2018-05-01T08:59:05.724Z,9.07
2018-05-01T09:01:34.151Z,10.15
2018-05-01T09:04:01.788Z,9.27
2018-05-01T09:06:29.439Z,8.35
2018-05-01T09:08:57.840Z,8.27
2018-05-01T09:11:25.483Z,8.18
2018-05-01T09:13:53.959Z,7.03
2018-05-01T09:16:22.374Z,6.20
2018-05-01T09:18:50.786Z,5.95
2018-05-01T09:21:18.419Z,6.07
2018-05-01T09:23:46.633Z,6.37
2018-05-01T09:26:14.287Z,6.03
2018-05-01T09:28:42.815Z,6.72
2018-05-01T09:31:10.948Z,6.40
2018-05-01T09:33:38.580Z,6.33
2018-05-01T09:36:06.218Z,6.47
2018-05-01T09:38:34.305Z,6.72
2018-05-01T09:41:02.043Z,6.87
2018-05-01T09:43:29.883Z,6.77
2018-05-01T09:45:59.349Z,5.78
2018-05-01T09:48:27.178Z,6.10
2018-05-01T09:50:54.815Z,5.78
2018-05-01T09:53:24.188Z,5.65
2018-05-01T09:55:52.295Z,6.07
2018-05-01T09:58:20.458Z,6.20
2018-05-01T10:00:49.395Z,5.80
2018-05-01T10:03:17.499Z,5.50
2018-05-01T10:05:45.645Z,4.97
2018-05-01T10:08:13.783Z,5.10
2018-05-01T10:10:41.925Z,4.45
2018-05-01T10:13:10.051Z,4.75
2018-05-01T10:15:38.271Z,4.40
2018-05-01T10:18:07.951Z,4.28
2018-05-01T10:20:36.106Z,4.10
2018-05-01T10:23:04.239Z,4.07
2018-05-01T10:25:33.129Z,4.47
2018-05-01T10:28:01.263Z,3.97
2018-05-01T10:30:29.527Z,4.17
2018-05-01T10:32:57.637Z,4.20
2018-05-01T10:35:25.782Z,4.20
2018-05-01T10:37:53.907Z,3.67
2018-05-01T10:40:22.835Z,3.23
2018-05-01T10:42:50.953Z,3.27
2018-05-01T10:45:20.596Z,3.70
2018-05-01T10:47:48.738Z,3.50
2018-05-01T10:50:16.855Z,3.37
2018-05-01T10:52:44.980Z,3.30
2018-05-01T10:55:13.119Z,3.20
2018-05-01T10:57:41.254Z,3.33
2018-05-01T11:00:09.431Z,3.63
2018-05-01T11:02:37.545Z,3.90
2018-05-01T11:05:05.683Z,4.10
2018-05-01T11:07:33.809Z,3.50
2018-05-01T11:10:01.980Z,4.27
2018-05-01T11:12:30.157Z,4.20
2018-05-01T11:14:58.269Z,3.93
2018-05-01T11:17:26.447Z,4.00
2018-05-01T11:19:55.310Z,3.43
2018-05-01T11:22:24.208Z,3.55
2018-05-01T11:24:53.117Z,3.60
2018-05-01T11:27:21.289Z,3.33
2018-05-01T11:29:49.412Z,3.00
2018-05-01T11:32:17.540Z,3.37
2018-05-01T11:34:45.648Z,3.90
2018-05-01T11:37:13.884Z,4.27
2018-05-01T11:39:42.012Z,3.40
2018-05-01T11:42:10.147Z,3.50
2018-05-01T11:44:38.247Z,3.97
2018-05-01T11:47:06.486Z,3.70
2018-05-01T11:49:34.628Z,3.63
2018-05-01T11:52:03.524Z,3.60
2018-05-01T11:54:32.408Z,3.63
2018-05-01T11:57:01.319Z,3.67
2018-05-01T11:59:29.456Z,3.43
2018-05-01T12:01:57.660Z,3.93
2018-05-01T12:04:25.864Z,4.13
2018-05-01T12:06:54.000Z,3.70
2018-05-01T12:09:22.896Z,3.30
2018-05-01T12:11:51.024Z,3.30
2018-05-01T12:14:19.143Z,2.93
2018-05-01T12:16:47.282Z,3.13
2018-05-01T12:19:16.911Z,3.10
2018-05-01T12:21:45.932Z,3.20
2018-05-01T12:24:14.113Z,3.00
2018-05-01T12:26:42.215Z,3.40
2018-05-01T12:29:10.440Z,3.60
2018-05-01T12:31:38.563Z,3.60
2018-05-01T12:34:06.792Z,3.10
2018-05-01T12:36:34.971Z,3.73
2018-05-01T12:39:03.847Z,2.97
2018-05-01T12:41:31.967Z,3.03
2018-05-01T12:44:00.125Z,2.90
2018-05-01T12:46:28.256Z,2.97
2018-05-01T12:48:57.182Z,3.13
2018-05-01T12:51:25.287Z,3.13
2018-05-01T12:53:55.012Z,3.20
2018-05-01T12:56:23.052Z,3.23
2018-05-01T12:58:51.215Z,3.50
2018-05-01T13:01:19.343Z,3.43
2018-05-01T13:03:48.259Z,2.90
2018-05-01T13:06:16.381Z,3.50
2018-05-01T13:08:44.599Z,2.83
2018-05-01T13:11:12.761Z,3.43
2018-05-01T13:13:41.665Z,3.43
2018-05-01T13:16:10.570Z,3.40
2018-05-01T13:18:38.701Z,3.00
2018-05-01T13:21:06.911Z,2.90
2018-05-01T13:23:35.023Z,2.67
2018-05-01T13:26:03.152Z,2.50
2018-05-01T13:28:31.337Z,2.80
2018-05-01T13:30:59.473Z,3.00
2018-05-01T13:33:28.359Z,2.70
2018-05-01T13:35:57.257Z,2.47
2018-05-01T13:38:26.160Z,2.73
2018-05-01T13:40:54.311Z,3.10
2018-05-01T13:43:23.193Z,2.80
2018-05-01T13:45:51.338Z,2.77
2018-05-01T13:48:19.498Z,2.90
2018-05-01T13:50:47.635Z,2.50
2018-05-01T13:53:16.529Z,2.30
2018-05-01T13:55:45.421Z,2.20
2018-05-01T13:58:14.311Z,2.30
2018-05-01T14:00:42.572Z,2.20
2018-05-01T14:03:10.645Z,2.40
2018-05-01T14:05:39.533Z,2.07
2018-05-01T14:08:08.432Z,2.43
2018-05-01T14:10:37.319Z,2.40
2018-05-01T14:13:06.250Z,2.30
2018-05-01T14:15:34.381Z,2.50
2018-05-01T14:18:03.320Z,2.30
2018-05-01T14:20:31.447Z,2.20
2018-05-01T14:23:00.369Z,1.90
2018-05-01T14:25:28.609Z,2.40
2018-05-01T14:27:56.622Z,2.20
2018-05-01T14:30:24.858Z,2.53
2018-05-01T14:32:52.967Z,2.40
2018-05-01T14:35:21.083Z,2.40
2018-05-01T14:37:49.209Z,2.60
2018-05-01T14:40:17.355Z,2.37
2018-05-01T14:42:46.260Z,2.57
2018-05-01T14:45:14.396Z,2.50
2018-05-01T14:47:42.523Z,2.40
2018-05-01T14:50:10.681Z,2.13
2018-05-01T14:52:38.793Z,2.20
2018-05-01T14:55:06.943Z,2.27
2018-05-01T14:57:35.061Z,2.40
2018-05-01T15:00:03.209Z,2.50
2018-05-01T15:02:34.305Z,2.20
2018-05-01T15:05:03.448Z,2.17
2018-05-01T15:07:31.580Z,2.10
2018-05-01T15:09:59.765Z,2.40
2018-05-01T15:12:27.935Z,1.87
2018-05-01T15:14:56.118Z,2.50
2018-05-01T15:17:24.316Z,2.10
2018-05-01T15:19:52.433Z,2.30
2018-05-01T15:22:21.439Z,2.60
2018-05-01T15:24:50.154Z,1.90
2018-05-01T15:27:18.269Z,2.10
2018-05-01T15:29:46.418Z,2.00
2018-05-01T15:32:14.661Z,2.30
2018-05-01T15:34:42.781Z,1.80
2018-05-01T15:37:12.435Z,2.40
2018-05-01T15:39:40.608Z,2.00
2018-05-01T15:42:08.803Z,2.27
2018-05-01T15:44:36.964Z,2.53
2018-05-01T15:47:05.092Z,2.13
2018-05-01T15:49:33.252Z,2.50
2018-05-01T15:52:01.385Z,2.73
2018-05-01T15:54:29.514Z,2.57
2018-05-01T15:56:57.652Z,2.60
2018-05-01T15:59:25.780Z,2.23
2018-05-01T16:01:54.689Z,2.50
2018-05-01T16:04:22.810Z,2.70
2018-05-01T16:06:52.482Z,2.70
2018-05-01T16:09:20.636Z,2.70
2018-05-01T16:11:48.796Z,3.13
2018-05-01T16:14:17.741Z,2.80
2018-05-01T16:16:46.566Z,2.70
2018-05-01T16:19:15.488Z,2.90
2018-05-01T16:21:43.627Z,3.10
2018-05-01T16:24:11.747Z,3.07
2018-05-01T16:26:39.861Z,3.00
2018-05-01T16:29:08.013Z,3.10
2018-05-01T16:31:36.253Z,3.40
2018-05-01T16:34:04.454Z,3.50
2018-05-01T16:36:32.568Z,3.40
2018-05-01T16:39:00.776Z,3.40
2018-05-01T16:41:28.913Z,3.53
2018-05-01T16:43:57.044Z,3.70
2018-05-01T16:46:25.174Z,3.20
2018-05-01T16:48:54.070Z,3.30
2018-05-01T16:51:22.990Z,3.07
2018-05-01T16:53:51.110Z,3.03
2018-05-01T16:56:19.244Z,2.83
2018-05-01T16:58:47.411Z,2.63
2018-05-01T17:01:15.528Z,2.53
2018-05-01T17:03:43.662Z,2.80
2018-05-01T17:06:11.810Z,2.40
2018-05-01T17:08:39.932Z,2.30
2018-05-01T17:11:08.053Z,2.57
2018-05-01T17:13:36.202Z,2.30
2018-05-01T17:16:04.407Z,2.67
2018-05-01T17:18:32.564Z,2.20
2018-05-01T17:21:01.465Z,2.30
2018-05-01T17:23:29.600Z,2.37
2018-05-01T17:25:59.233Z,2.60
2018-05-01T17:28:28.140Z,2.50
2018-05-01T17:30:56.259Z,2.30
2018-05-01T17:33:24.482Z,2.37
2018-05-01T17:35:53.362Z,2.57
2018-05-01T17:38:22.251Z,2.30
2018-05-01T17:40:51.181Z,2.00
2018-05-01T17:43:19.321Z,2.40
2018-05-01T17:45:48.227Z,2.80
2018-05-01T17:48:16.345Z,2.87
2018-05-01T17:50:44.508Z,2.47
2018-05-01T17:53:12.653Z,2.80
2018-05-01T17:55:40.785Z,2.77
2018-05-01T17:58:08.909Z,2.67
2018-05-01T18:00:37.161Z,2.60
2018-05-01T18:03:05.321Z,2.60
2018-05-01T18:05:34.227Z,2.60
2018-05-01T18:08:02.386Z,2.60
2018-05-01T18:10:31.317Z,2.63
2018-05-01T18:12:59.443Z,2.57
2018-05-01T18:15:28.371Z,2.67
2018-05-01T18:17:56.535Z,2.40
2018-05-01T18:20:24.645Z,2.60
2018-05-01T18:22:52.794Z,2.43
2018-05-01T18:25:20.933Z,2.77
2018-05-01T18:27:49.825Z,2.70
2018-05-01T18:30:18.747Z,2.53
2018-05-01T18:32:46.885Z,2.80
2018-05-01T18:35:15.879Z,2.30
2018-05-01T18:37:44.784Z,2.53
2018-05-01T18:40:12.951Z,2.53
2018-05-01T18:42:41.254Z,2.60
2018-05-01T18:45:09.365Z,2.73
2018-05-01T18:47:38.249Z,2.97
2018-05-01T18:50:06.376Z,2.80
2018-05-01T18:52:34.528Z,2.83
2018-05-01T18:55:03.429Z,2.60
2018-05-01T18:57:32.328Z,2.53
2018-05-01T19:00:00.481Z,2.90
2018-05-01T19:02:29.380Z,2.80
2018-05-01T19:04:57.508Z,2.80
2018-05-01T19:07:25.692Z,2.67
2018-05-01T19:09:55.329Z,2.70
2018-05-01T19:12:24.216Z,2.60
2018-05-01T19:14:53.124Z,2.93
2018-05-01T19:17:21.252Z,2.78
2018-05-01T19:19:50.206Z,3.08
2018-05-01T19:22:18.328Z,2.67
2018-05-01T19:24:46.476Z,3.27
2018-05-01T19:27:14.589Z,2.70
2018-05-01T19:29:43.482Z,3.00
2018-05-01T19:32:12.418Z,3.30
2018-05-01T19:34:40.560Z,2.87
2018-05-01T19:37:08.740Z,3.00
2018-05-01T19:39:36.916Z,3.10
2018-05-01T19:42:05.204Z,2.72
2018-05-01T19:44:33.338Z,3.07
2018-05-01T19:47:02.254Z,3.03
2018-05-01T19:49:30.452Z,3.10
2018-05-01T19:51:58.937Z,3.30
2018-05-01T19:54:27.084Z,3.20
2018-05-01T19:56:55.259Z,3.17
2018-05-01T19:59:23.340Z,3.40
2018-05-01T20:01:51.484Z,3.33
2018-05-01T20:04:20.375Z,3.17
2018-05-01T20:06:49.394Z,3.40
2018-05-01T20:09:17.519Z,3.10
2018-05-01T20:11:46.448Z,3.50
2018-05-01T20:14:14.684Z,3.17
2018-05-01T20:16:42.752Z,3.60
2018-05-01T20:19:10.912Z,3.80
2018-05-01T20:21:39.048Z,3.60
2018-05-01T20:24:07.216Z,3.08
2018-05-01T20:26:35.400Z,3.42
2018-05-01T20:29:03.526Z,3.70
2018-05-01T20:31:32.432Z,3.47
2018-05-01T20:34:01.348Z,3.37
2018-05-01T20:36:29.483Z,3.12
2018-05-01T20:38:58.375Z,3.33
2018-05-01T20:41:27.410Z,3.58
2018-05-01T20:43:55.577Z,3.63
2018-05-01T20:46:23.707Z,3.37
2018-05-01T20:48:51.831Z,3.83
2018-05-01T20:51:19.967Z,3.90
2018-05-01T20:53:48.899Z,3.47
2018-05-01T20:56:17.042Z,3.65
2018-05-01T20:58:45.248Z,3.80
2018-05-01T21:01:13.385Z,4.05
2018-05-01T21:03:42.405Z,3.70
2018-05-01T21:06:10.561Z,4.10
2018-05-01T21:08:38.693Z,4.03
2018-05-01T21:11:06.817Z,4.20
2018-05-01T21:13:34.964Z,4.28
2018-05-01T21:16:03.870Z,4.25
2018-05-01T21:18:32.133Z,4.62
2018-05-01T21:21:01.021Z,4.35
2018-05-01T21:23:29.929Z,4.80
2018-05-01T21:25:58.089Z,4.95
2018-05-01T21:28:26.977Z,4.90
2018-05-01T21:30:55.873Z,4.53
2018-05-01T21:33:24.784Z,5.40
2018-05-01T21:35:52.913Z,5.03
2018-05-01T21:38:22.557Z,5.18
2018-05-01T21:40:50.760Z,7.65
2018-05-01T21:43:18.889Z,9.15
2018-05-01T21:45:47.027Z,8.77
2018-05-01T21:48:15.165Z,6.97
2018-05-01T21:50:43.283Z,6.30
2018-05-01T21:53:12.231Z,6.25
2018-05-01T21:55:40.386Z,5.50
2018-05-01T21:58:08.511Z,5.60
2018-05-01T22:00:36.651Z,5.82
2018-05-01T22:03:04.809Z,5.75
2018-05-01T22:05:32.953Z,5.20
2018-05-01T22:08:01.889Z,5.28
2018-05-01T22:10:29.992Z,5.32
2018-05-01T22:12:58.129Z,5.25
2018-05-01T22:15:26.270Z,5.22
2018-05-01T22:17:55.186Z,5.85
2018-05-01T22:20:23.308Z,5.60
2018-05-01T22:22:51.440Z,5.78
2018-05-01T22:25:19.602Z,6.00
2018-05-01T22:27:47.744Z,6.12
2018-05-01T22:30:16.628Z,6.20
2018-05-01T22:32:44.832Z,6.03
2018-05-01T22:35:13.012Z,6.18
2018-05-01T22:37:41.160Z,6.57
2018-05-01T22:40:10.052Z,6.97
2018-05-01T22:42:38.944Z,6.40
2018-05-01T22:45:07.845Z,6.47
2018-05-01T22:47:36.744Z,6.15
2018-05-01T22:50:04.856Z,7.28
2018-05-01T22:52:32.984Z,7.22
2018-05-01T22:55:01.139Z,7.15
2018-05-01T22:57:30.049Z,7.20
2018-05-01T22:59:58.172Z,6.97
2018-05-01T23:02:26.314Z,6.87
2018-05-01T23:04:54.472Z,7.12
2018-05-01T23:07:22.613Z,7.32
2018-05-01T23:09:50.748Z,7.10
2018-05-01T23:12:18.873Z,7.30
2018-05-01T23:14:47.008Z,7.07
2018-05-01T23:17:15.264Z,6.80
2018-05-01T23:19:43.418Z,7.18
2018-05-01T23:22:14.150Z,7.45
2018-05-01T23:24:42.280Z,6.80
2018-05-01T23:27:11.188Z,7.45
2018-05-01T23:29:40.074Z,7.72
2018-05-01T23:32:08.987Z,7.47
2018-05-01T23:34:37.163Z,6.70
2018-05-01T23:37:05.307Z,7.40
2018-05-01T23:39:34.199Z,7.05
2018-05-01T23:42:03.081Z,7.18
2018-05-01T23:44:32.724Z,7.45
2018-05-01T23:47:00.852Z,7.62
2018-05-01T23:49:29.072Z,7.30
2018-05-01T23:51:57.227Z,6.95
2018-05-01T23:54:25.344Z,7.15
2018-05-01T23:56:53.603Z,6.65
2018-05-01T23:59:21.723Z,6.85
